Tavistock, New Jersey
Current Conditions -  °F | °C
As of 11:54 AM on Saturday 25 Oct 2014 (Local Time) from KPHL Reporting Station
Few Clouds Few Clouds  
Wind Chill: 64°   Ceiling: Unl
Heat Index: 64°   Visibility: 10mi
Dew Point: 42°   Wind: 9mph
Humidity: 45%   Direction: 270°W
Pressure: 29.87"   Gusts: 18mph
Location:  39.8934°N, 75.0387°W
Report Text: KPHL 251554Z 27008G16KT 10SM FEW250 18/06 A2987 RMK AO2 SLP115 T01780056
Loading
Personal Weather Stations






























Interactive Weather Map
Tropical Storm Tracking
New forecast layout! Learn more

10-Day Weather Forecast

Advertisements
Track Severe Weather on mobile